sensor_id;sensor_type;location;lat;lon;timestamp;P1;durP1;ratioP1;P2;durP2;ratioP2
43817;SDS011;29868;47.360;18.984;2023-08-20T00:00:08;14.88;;;11.82;;
43817;SDS011;29868;47.360;18.984;2023-08-20T00:02:34;17.88;;;12.85;;
43817;SDS011;29868;47.360;18.984;2023-08-20T00:05:02;17.05;;;12.50;;
43817;SDS011;29868;47.360;18.984;2023-08-20T00:07:29;16.02;;;13.02;;
43817;SDS011;29868;47.360;18.984;2023-08-20T00:09:58;15.63;;;12.68;;
43817;SDS011;29868;47.360;18.984;2023-08-20T00:12:24;14.90;;;12.10;;
43817;SDS011;29868;47.360;18.984;2023-08-20T00:14:52;15.13;;;12.25;;
43817;SDS011;29868;47.360;18.984;2023-08-20T00:17:23;17.83;;;13.13;;
43817;SDS011;29868;47.360;18.984;2023-08-20T00:19:52;15.43;;;13.07;;
43817;SDS011;29868;47.360;18.984;2023-08-20T00:22:18;16.50;;;13.20;;
43817;SDS011;29868;47.360;18.984;2023-08-20T00:24:47;15.02;;;12.45;;
43817;SDS011;29868;47.360;18.984;2023-08-20T00:27:13;16.85;;;12.65;;
43817;SDS011;29868;47.360;18.984;2023-08-20T00:29:39;17.13;;;13.07;;
43817;SDS011;29868;47.360;18.984;2023-08-20T00:32:04;18.27;;;13.48;;
43817;SDS011;29868;47.360;18.984;2023-08-20T00:34:29;16.65;;;13.52;;
43817;SDS011;29868;47.360;18.984;2023-08-20T00:36:55;16.50;;;13.15;;
43817;SDS011;29868;47.360;18.984;2023-08-20T00:39:20;16.40;;;12.95;;
43817;SDS011;29868;47.360;18.984;2023-08-20T00:41:46;17.00;;;12.70;;
43817;SDS011;29868;47.360;18.984;2023-08-20T00:44:11;16.67;;;12.77;;
43817;SDS011;29868;47.360;18.984;2023-08-20T00:46:36;14.80;;;12.82;;
43817;SDS011;29868;47.360;18.984;2023-08-20T00:49:02;14.95;;;12.18;;
43817;SDS011;29868;47.360;18.984;2023-08-20T00:51:28;15.65;;;12.48;;
43817;SDS011;29868;47.360;18.984;2023-08-20T00:53:54;15.48;;;12.82;;
43817;SDS011;29868;47.360;18.984;2023-08-20T00:56:20;15.88;;;12.60;;
43817;SDS011;29868;47.360;18.984;2023-08-20T00:58:46;16.80;;;13.25;;
43817;SDS011;29868;47.360;18.984;2023-08-20T01:01:11;15.88;;;12.77;;
43817;SDS011;29868;47.360;18.984;2023-08-20T01:03:37;18.10;;;13.27;;
43817;SDS011;29868;47.360;18.984;2023-08-20T01:06:12;16.23;;;12.55;;
43817;SDS011;29868;47.360;18.984;2023-08-20T01:09:43;17.80;;;12.95;;
43817;SDS011;29868;47.360;18.984;2023-08-20T01:11:57;16.75;;;13.35;;
43817;SDS011;29868;47.360;18.984;2023-08-20T01:14:24;17.63;;;13.40;;
43817;SDS011;29868;47.360;18.984;2023-08-20T01:16:50;17.23;;;13.30;;
43817;SDS011;29868;47.360;18.984;2023-08-20T01:19:19;15.75;;;12.63;;
43817;SDS011;29868;47.360;18.984;2023-08-20T01:27:34;16.52;;;12.63;;
43817;SDS011;29868;47.360;18.984;2023-08-20T01:30:22;15.85;;;12.77;;
43817;SDS011;29868;47.360;18.984;2023-08-20T01:32:50;15.43;;;11.60;;
43817;SDS011;29868;47.360;18.984;2023-08-20T01:35:17;17.25;;;12.55;;
43817;SDS011;29868;47.360;18.984;2023-08-20T01:37:43;16.45;;;13.05;;
43817;SDS011;29868;47.360;18.984;2023-08-20T01:40:08;15.30;;;12.30;;
43817;SDS011;29868;47.360;18.984;2023-08-20T01:42:38;16.92;;;12.75;;
43817;SDS011;29868;47.360;18.984;2023-08-20T01:45:05;17.08;;;13.02;;
43817;SDS011;29868;47.360;18.984;2023-08-20T01:47:34;17.15;;;12.82;;
43817;SDS011;29868;47.360;18.984;2023-08-20T01:50:00;17.17;;;12.50;;
43817;SDS011;29868;47.360;18.984;2023-08-20T01:52:25;16.65;;;13.43;;
43817;SDS011;29868;47.360;18.984;2023-08-20T01:54:51;17.35;;;13.27;;
43817;SDS011;29868;47.360;18.984;2023-08-20T01:57:18;18.70;;;13.32;;
43817;SDS011;29868;47.360;18.984;2023-08-20T01:59:43;17.10;;;12.95;;
43817;SDS011;29868;47.360;18.984;2023-08-20T02:02:08;18.92;;;13.43;;
43817;SDS011;29868;47.360;18.984;2023-08-20T02:04:34;17.30;;;13.18;;
43817;SDS011;29868;47.360;18.984;2023-08-20T02:06:59;18.60;;;13.60;;
43817;SDS011;29868;47.360;18.984;2023-08-20T02:09:25;15.02;;;12.65;;
43817;SDS011;29868;47.360;18.984;2023-08-20T02:11:50;16.15;;;12.00;;
43817;SDS011;29868;47.360;18.984;2023-08-20T02:14:16;14.68;;;12.10;;
43817;SDS011;29868;47.360;18.984;2023-08-20T02:16:42;16.33;;;12.50;;
43817;SDS011;29868;47.360;18.984;2023-08-20T02:19:08;18.33;;;13.57;;
43817;SDS011;29868;47.360;18.984;2023-08-20T02:21:34;17.08;;;12.98;;
43817;SDS011;29868;47.360;18.984;2023-08-20T02:23:59;16.83;;;13.27;;
43817;SDS011;29868;47.360;18.984;2023-08-20T02:26:25;15.07;;;12.77;;
43817;SDS011;29868;47.360;18.984;2023-08-20T02:28:51;17.75;;;13.07;;
43817;SDS011;29868;47.360;18.984;2023-08-20T02:31:16;17.48;;;12.90;;
43817;SDS011;29868;47.360;18.984;2023-08-20T02:33:42;16.88;;;12.88;;
43817;SDS011;29868;47.360;18.984;2023-08-20T02:36:07;16.45;;;12.77;;
43817;SDS011;29868;47.360;18.984;2023-08-20T02:38:33;16.52;;;13.23;;
43817;SDS011;29868;47.360;18.984;2023-08-20T02:40:58;18.30;;;13.85;;
43817;SDS011;29868;47.360;18.984;2023-08-20T02:43:23;17.65;;;13.88;;
43817;SDS011;29868;47.360;18.984;2023-08-20T02:45:49;17.27;;;12.63;;
43817;SDS011;29868;47.360;18.984;2023-08-20T02:48:14;16.70;;;12.73;;
43817;SDS011;29868;47.360;18.984;2023-08-20T02:50:40;16.77;;;12.98;;
43817;SDS011;29868;47.360;18.984;2023-08-20T02:53:05;16.73;;;12.88;;
43817;SDS011;29868;47.360;18.984;2023-08-20T02:55:32;16.23;;;12.82;;
43817;SDS011;29868;47.360;18.984;2023-08-20T02:57:58;16.13;;;12.32;;
43817;SDS011;29868;47.360;18.984;2023-08-20T03:00:24;16.85;;;12.55;;
43817;SDS011;29868;47.360;18.984;2023-08-20T03:02:49;15.52;;;13.00;;
43817;SDS011;29868;47.360;18.984;2023-08-20T03:05:15;16.30;;;12.65;;
43817;SDS011;29868;47.360;18.984;2023-08-20T03:07:40;15.32;;;12.15;;
43817;SDS011;29868;47.360;18.984;2023-08-20T03:10:06;16.35;;;13.20;;
43817;SDS011;29868;47.360;18.984;2023-08-20T03:12:31;18.70;;;14.18;;
43817;SDS011;29868;47.360;18.984;2023-08-20T03:14:57;18.23;;;13.52;;
43817;SDS011;29868;47.360;18.984;2023-08-20T03:17:23;20.23;;;13.75;;
43817;SDS011;29868;47.360;18.984;2023-08-20T03:19:56;19.40;;;14.30;;
43817;SDS011;29868;47.360;18.984;2023-08-20T03:22:23;19.13;;;14.47;;
43817;SDS011;29868;47.360;18.984;2023-08-20T03:24:49;18.27;;;13.30;;
43817;SDS011;29868;47.360;18.984;2023-08-20T03:27:15;16.77;;;13.05;;
43817;SDS011;29868;47.360;18.984;2023-08-20T03:29:41;17.35;;;13.07;;
43817;SDS011;29868;47.360;18.984;2023-08-20T03:32:06;17.48;;;12.88;;
43817;SDS011;29868;47.360;18.984;2023-08-20T03:34:32;16.52;;;13.00;;
43817;SDS011;29868;47.360;18.984;2023-08-20T03:36:57;17.48;;;13.35;;
43817;SDS011;29868;47.360;18.984;2023-08-20T03:39:22;17.15;;;13.45;;
43817;SDS011;29868;47.360;18.984;2023-08-20T03:41:49;18.83;;;13.93;;
43817;SDS011;29868;47.360;18.984;2023-08-20T03:44:15;17.60;;;13.55;;
43817;SDS011;29868;47.360;18.984;2023-08-20T03:46:40;18.63;;;13.30;;
43817;SDS011;29868;47.360;18.984;2023-08-20T03:49:06;18.90;;;13.90;;
43817;SDS011;29868;47.360;18.984;2023-08-20T03:51:31;17.55;;;13.30;;
43817;SDS011;29868;47.360;18.984;2023-08-20T03:53:57;19.25;;;13.95;;
43817;SDS011;29868;47.360;18.984;2023-08-20T03:56:22;19.67;;;14.93;;
43817;SDS011;29868;47.360;18.984;2023-08-20T03:58:47;19.05;;;14.15;;
43817;SDS011;29868;47.360;18.984;2023-08-20T04:01:13;17.63;;;13.25;;
43817;SDS011;29868;47.360;18.984;2023-08-20T04:03:38;18.13;;;13.45;;
43817;SDS011;29868;47.360;18.984;2023-08-20T04:06:03;18.73;;;13.75;;
43817;SDS011;29868;47.360;18.984;2023-08-20T04:08:29;17.05;;;13.25;;
43817;SDS011;29868;47.360;18.984;2023-08-20T04:10:54;18.00;;;13.00;;
43817;SDS011;29868;47.360;18.984;2023-08-20T04:13:20;17.63;;;13.82;;
43817;SDS011;29868;47.360;18.984;2023-08-20T04:15:45;17.52;;;13.80;;
43817;SDS011;29868;47.360;18.984;2023-08-20T04:18:11;17.77;;;13.52;;
43817;SDS011;29868;47.360;18.984;2023-08-20T04:20:37;17.48;;;14.05;;
43817;SDS011;29868;47.360;18.984;2023-08-20T04:23:02;18.30;;;14.27;;
43817;SDS011;29868;47.360;18.984;2023-08-20T04:25:28;18.38;;;14.18;;
43817;SDS011;29868;47.360;18.984;2023-08-20T04:27:53;17.88;;;13.90;;
43817;SDS011;29868;47.360;18.984;2023-08-20T04:30:19;17.42;;;14.23;;
43817;SDS011;29868;47.360;18.984;2023-08-20T04:32:44;17.27;;;13.95;;
43817;SDS011;29868;47.360;18.984;2023-08-20T04:35:10;17.95;;;14.13;;
43817;SDS011;29868;47.360;18.984;2023-08-20T04:37:35;17.75;;;14.70;;
43817;SDS011;29868;47.360;18.984;2023-08-20T04:40:01;18.55;;;14.40;;
43817;SDS011;29868;47.360;18.984;2023-08-20T04:42:29;18.67;;;14.15;;
43817;SDS011;29868;47.360;18.984;2023-08-20T04:44:55;18.33;;;14.18;;
43817;SDS011;29868;47.360;18.984;2023-08-20T04:47:20;19.05;;;14.32;;
43817;SDS011;29868;47.360;18.984;2023-08-20T04:49:45;17.85;;;14.13;;
43817;SDS011;29868;47.360;18.984;2023-08-20T04:52:11;17.38;;;13.45;;
43817;SDS011;29868;47.360;18.984;2023-08-20T04:54:36;15.85;;;13.38;;
43817;SDS011;29868;47.360;18.984;2023-08-20T04:57:02;15.35;;;12.07;;
43817;SDS011;29868;47.360;18.984;2023-08-20T04:59:27;12.40;;;11.07;;
43817;SDS011;29868;47.360;18.984;2023-08-20T05:01:53;11.32;;;9.90;;
43817;SDS011;29868;47.360;18.984;2023-08-20T05:04:18;12.50;;;10.18;;
43817;SDS011;29868;47.360;18.984;2023-08-20T05:06:43;10.35;;;9.25;;
43817;SDS011;29868;47.360;18.984;2023-08-20T05:09:09;10.20;;;9.10;;
43817;SDS011;29868;47.360;18.984;2023-08-20T05:11:34;10.13;;;8.65;;
43817;SDS011;29868;47.360;18.984;2023-08-20T05:14:00;9.65;;;8.18;;
43817;SDS011;29868;47.360;18.984;2023-08-20T05:16:25;9.35;;;8.38;;
43817;SDS011;29868;47.360;18.984;2023-08-20T05:18:50;10.90;;;9.10;;
43817;SDS011;29868;47.360;18.984;2023-08-20T05:21:16;10.75;;;8.70;;
43817;SDS011;29868;47.360;18.984;2023-08-20T05:23:41;10.85;;;8.90;;
43817;SDS011;29868;47.360;18.984;2023-08-20T05:26:07;10.02;;;8.35;;
43817;SDS011;29868;47.360;18.984;2023-08-20T05:28:33;8.95;;;7.70;;
43817;SDS011;29868;47.360;18.984;2023-08-20T05:30:59;9.02;;;7.72;;
43817;SDS011;29868;47.360;18.984;2023-08-20T05:33:24;9.25;;;7.53;;
43817;SDS011;29868;47.360;18.984;2023-08-20T05:35:51;8.60;;;7.70;;
43817;SDS011;29868;47.360;18.984;2023-08-20T05:38:16;8.45;;;7.55;;
43817;SDS011;29868;47.360;18.984;2023-08-20T05:40:42;8.75;;;7.20;;
43817;SDS011;29868;47.360;18.984;2023-08-20T05:43:08;9.07;;;7.90;;
43817;SDS011;29868;47.360;18.984;2023-08-20T05:45:33;8.85;;;7.22;;
43817;SDS011;29868;47.360;18.984;2023-08-20T05:47:59;8.82;;;7.22;;
43817;SDS011;29868;47.360;18.984;2023-08-20T05:50:25;8.40;;;7.50;;
43817;SDS011;29868;47.360;18.984;2023-08-20T05:52:50;9.13;;;7.00;;
43817;SDS011;29868;47.360;18.984;2023-08-20T05:55:15;9.05;;;6.93;;
43817;SDS011;29868;47.360;18.984;2023-08-20T05:57:41;8.82;;;7.15;;
43817;SDS011;29868;47.360;18.984;2023-08-20T06:00:08;8.57;;;7.03;;
43817;SDS011;29868;47.360;18.984;2023-08-20T06:02:34;7.00;;;6.30;;
43817;SDS011;29868;47.360;18.984;2023-08-20T06:04:59;8.63;;;6.75;;
43817;SDS011;29868;47.360;18.984;2023-08-20T06:07:25;9.82;;;6.32;;
43817;SDS011;29868;47.360;18.984;2023-08-20T06:09:50;8.95;;;6.40;;
43817;SDS011;29868;47.360;18.984;2023-08-20T06:12:16;6.85;;;6.00;;
43817;SDS011;29868;47.360;18.984;2023-08-20T06:14:42;7.10;;;6.30;;
43817;SDS011;29868;47.360;18.984;2023-08-20T06:17:07;8.65;;;6.15;;
43817;SDS011;29868;47.360;18.984;2023-08-20T06:19:33;7.65;;;5.75;;
43817;SDS011;29868;47.360;18.984;2023-08-20T06:21:59;6.95;;;5.93;;
43817;SDS011;29868;47.360;18.984;2023-08-20T06:24:24;8.40;;;6.60;;
43817;SDS011;29868;47.360;18.984;2023-08-20T06:26:51;7.13;;;6.30;;
43817;SDS011;29868;47.360;18.984;2023-08-20T06:29:17;8.77;;;6.10;;
43817;SDS011;29868;47.360;18.984;2023-08-20T06:31:42;8.43;;;5.85;;
43817;SDS011;29868;47.360;18.984;2023-08-20T06:34:08;5.72;;;5.13;;
43817;SDS011;29868;47.360;18.984;2023-08-20T06:36:34;5.63;;;5.10;;
43817;SDS011;29868;47.360;18.984;2023-08-20T06:39:00;6.68;;;5.13;;
43817;SDS011;29868;47.360;18.984;2023-08-20T06:41:27;5.82;;;4.90;;
43817;SDS011;29868;47.360;18.984;2023-08-20T06:43:52;5.20;;;4.70;;
43817;SDS011;29868;47.360;18.984;2023-08-20T06:46:17;4.90;;;4.40;;
43817;SDS011;29868;47.360;18.984;2023-08-20T06:48:43;5.85;;;4.90;;
43817;SDS011;29868;47.360;18.984;2023-08-20T06:51:11;6.65;;;5.15;;
43817;SDS011;29868;47.360;18.984;2023-08-20T06:53:38;6.90;;;5.30;;
43817;SDS011;29868;47.360;18.984;2023-08-20T06:56:05;5.57;;;5.07;;
43817;SDS011;29868;47.360;18.984;2023-08-20T06:58:31;6.57;;;5.50;;
43817;SDS011;29868;47.360;18.984;2023-08-20T07:00:57;6.50;;;5.05;;
43817;SDS011;29868;47.360;18.984;2023-08-20T07:03:32;6.05;;;5.18;;
43817;SDS011;29868;47.360;18.984;2023-08-20T07:06:04;6.80;;;5.10;;
43817;SDS011;29868;47.360;18.984;2023-08-20T07:08:30;6.15;;;5.55;;
43817;SDS011;29868;47.360;18.984;2023-08-20T07:10:55;8.13;;;5.75;;
43817;SDS011;29868;47.360;18.984;2023-08-20T07:13:21;6.47;;;5.38;;
43817;SDS011;29868;47.360;18.984;2023-08-20T07:15:47;6.13;;;5.53;;
43817;SDS011;29868;47.360;18.984;2023-08-20T07:18:12;6.47;;;5.28;;
43817;SDS011;29868;47.360;18.984;2023-08-20T07:20:39;7.50;;;6.07;;
43817;SDS011;29868;47.360;18.984;2023-08-20T07:23:06;6.85;;;5.90;;
43817;SDS011;29868;47.360;18.984;2023-08-20T07:25:32;6.63;;;5.82;;
43817;SDS011;29868;47.360;18.984;2023-08-20T07:27:57;6.60;;;5.88;;
43817;SDS011;29868;47.360;18.984;2023-08-20T07:30:27;6.32;;;5.63;;
43817;SDS011;29868;47.360;18.984;2023-08-20T07:32:53;6.75;;;5.90;;
43817;SDS011;29868;47.360;18.984;2023-08-20T07:35:18;6.25;;;5.65;;
43817;SDS011;29868;47.360;18.984;2023-08-20T07:37:44;6.95;;;5.50;;
43817;SDS011;29868;47.360;18.984;2023-08-20T07:40:11;7.03;;;5.68;;
43817;SDS011;29868;47.360;18.984;2023-08-20T07:42:36;7.93;;;5.88;;
43817;SDS011;29868;47.360;18.984;2023-08-20T07:45:02;7.22;;;5.43;;
43817;SDS011;29868;47.360;18.984;2023-08-20T07:47:28;9.00;;;5.60;;
43817;SDS011;29868;47.360;18.984;2023-08-20T07:49:54;7.38;;;5.60;;
43817;SDS011;29868;47.360;18.984;2023-08-20T07:52:20;6.07;;;5.40;;
43817;SDS011;29868;47.360;18.984;2023-08-20T07:54:46;6.57;;;5.82;;
43817;SDS011;29868;47.360;18.984;2023-08-20T07:57:11;6.28;;;5.35;;
43817;SDS011;29868;47.360;18.984;2023-08-20T07:59:37;7.82;;;5.63;;
43817;SDS011;29868;47.360;18.984;2023-08-20T08:02:03;5.63;;;5.00;;
43817;SDS011;29868;47.360;18.984;2023-08-20T08:04:28;6.68;;;5.38;;
43817;SDS011;29868;47.360;18.984;2023-08-20T08:06:54;7.28;;;5.57;;
43817;SDS011;29868;47.360;18.984;2023-08-20T08:09:26;8.52;;;5.55;;
43817;SDS011;29868;47.360;18.984;2023-08-20T08:14:18;7.43;;;5.13;;
43817;SDS011;29868;47.360;18.984;2023-08-20T08:16:44;7.25;;;5.45;;
43817;SDS011;29868;47.360;18.984;2023-08-20T08:19:10;6.43;;;5.22;;
43817;SDS011;29868;47.360;18.984;2023-08-20T08:21:36;6.38;;;5.78;;
43817;SDS011;29868;47.360;18.984;2023-08-20T08:24:01;6.25;;;5.65;;
43817;SDS011;29868;47.360;18.984;2023-08-20T08:26:27;5.40;;;4.90;;
43817;SDS011;29868;47.360;18.984;2023-08-20T08:28:53;6.70;;;5.35;;
43817;SDS011;29868;47.360;18.984;2023-08-20T08:31:19;5.78;;;5.15;;
43817;SDS011;29868;47.360;18.984;2023-08-20T08:33:44;6.10;;;5.28;;
43817;SDS011;29868;47.360;18.984;2023-08-20T08:36:09;5.78;;;5.18;;
43817;SDS011;29868;47.360;18.984;2023-08-20T08:38:36;7.00;;;5.55;;
43817;SDS011;29868;47.360;18.984;2023-08-20T08:41:02;6.10;;;5.45;;
43817;SDS011;29868;47.360;18.984;2023-08-20T08:43:28;7.28;;;5.82;;
43817;SDS011;29868;47.360;18.984;2023-08-20T08:45:56;6.47;;;5.57;;
43817;SDS011;29868;47.360;18.984;2023-08-20T08:48:22;6.50;;;5.50;;
43817;SDS011;29868;47.360;18.984;2023-08-20T08:50:50;7.22;;;5.60;;
43817;SDS011;29868;47.360;18.984;2023-08-20T08:53:17;6.80;;;5.60;;
43817;SDS011;29868;47.360;18.984;2023-08-20T08:55:43;6.03;;;5.43;;
43817;SDS011;29868;47.360;18.984;2023-08-20T08:58:08;6.78;;;5.95;;
43817;SDS011;29868;47.360;18.984;2023-08-20T09:00:33;7.10;;;5.43;;
43817;SDS011;29868;47.360;18.984;2023-08-20T09:02:59;7.35;;;5.82;;
43817;SDS011;29868;47.360;18.984;2023-08-20T09:05:25;6.15;;;5.55;;
43817;SDS011;29868;47.360;18.984;2023-08-20T09:07:56;6.10;;;5.50;;
43817;SDS011;29868;47.360;18.984;2023-08-20T09:10:25;6.38;;;5.40;;
43817;SDS011;29868;47.360;18.984;2023-08-20T09:12:51;5.72;;;5.10;;
43817;SDS011;29868;47.360;18.984;2023-08-20T09:15:20;5.38;;;4.60;;
43817;SDS011;29868;47.360;18.984;2023-08-20T09:17:46;5.55;;;4.80;;
43817;SDS011;29868;47.360;18.984;2023-08-20T09:20:12;6.68;;;4.90;;
43817;SDS011;29868;47.360;18.984;2023-08-20T09:22:37;7.20;;;5.15;;
43817;SDS011;29868;47.360;18.984;2023-08-20T09:25:03;6.85;;;5.53;;
43817;SDS011;29868;47.360;18.984;2023-08-20T09:27:29;6.10;;;5.15;;
43817;SDS011;29868;47.360;18.984;2023-08-20T09:29:55;7.38;;;5.63;;
43817;SDS011;29868;47.360;18.984;2023-08-20T09:32:25;7.30;;;5.65;;
43817;SDS011;29868;47.360;18.984;2023-08-20T09:34:53;7.72;;;5.50;;
43817;SDS011;29868;47.360;18.984;2023-08-20T09:37:20;8.95;;;5.70;;
43817;SDS011;29868;47.360;18.984;2023-08-20T09:39:47;6.95;;;5.60;;
43817;SDS011;29868;47.360;18.984;2023-08-20T09:42:13;6.22;;;5.25;;
43817;SDS011;29868;47.360;18.984;2023-08-20T09:44:41;6.07;;;5.38;;
43817;SDS011;29868;47.360;18.984;2023-08-20T09:49:38;6.03;;;5.07;;
43817;SDS011;29868;47.360;18.984;2023-08-20T09:52:06;6.18;;;5.57;;
43817;SDS011;29868;47.360;18.984;2023-08-20T09:54:45;5.90;;;4.90;;
43817;SDS011;29868;47.360;18.984;2023-08-20T09:57:18;6.00;;;5.20;;
43817;SDS011;29868;47.360;18.984;2023-08-20T09:59:52;6.88;;;5.40;;
43817;SDS011;29868;47.360;18.984;2023-08-20T10:02:18;6.03;;;5.35;;
43817;SDS011;29868;47.360;18.984;2023-08-20T10:04:44;7.25;;;5.50;;
43817;SDS011;29868;47.360;18.984;2023-08-20T10:07:10;6.30;;;5.45;;
43817;SDS011;29868;47.360;18.984;2023-08-20T10:09:37;6.93;;;5.95;;
43817;SDS011;29868;47.360;18.984;2023-08-20T10:12:04;7.28;;;5.68;;
43817;SDS011;29868;47.360;18.984;2023-08-20T10:14:30;6.70;;;5.78;;
43817;SDS011;29868;47.360;18.984;2023-08-20T10:16:55;5.93;;;4.95;;
43817;SDS011;29868;47.360;18.984;2023-08-20T10:19:22;6.20;;;5.43;;
43817;SDS011;29868;47.360;18.984;2023-08-20T10:21:50;6.65;;;5.85;;
43817;SDS011;29868;47.360;18.984;2023-08-20T10:24:18;5.97;;;5.25;;
43817;SDS011;29868;47.360;18.984;2023-08-20T10:26:47;6.80;;;5.40;;
43817;SDS011;29868;47.360;18.984;2023-08-20T10:32:02;6.15;;;5.50;;
43817;SDS011;29868;47.360;18.984;2023-08-20T10:34:32;6.00;;;5.40;;
43817;SDS011;29868;47.360;18.984;2023-08-20T10:37:01;7.70;;;5.53;;
43817;SDS011;29868;47.360;18.984;2023-08-20T10:39:28;5.82;;;4.88;;
43817;SDS011;29868;47.360;18.984;2023-08-20T10:44:59;5.93;;;5.30;;
43817;SDS011;29868;47.360;18.984;2023-08-20T10:47:35;6.13;;;5.03;;
43817;SDS011;29868;47.360;18.984;2023-08-20T10:50:02;5.75;;;5.15;;
43817;SDS011;29868;47.360;18.984;2023-08-20T10:52:28;5.68;;;5.07;;
43817;SDS011;29868;47.360;18.984;2023-08-20T10:54:55;6.43;;;5.15;;
43817;SDS011;29868;47.360;18.984;2023-08-20T10:57:21;6.43;;;5.05;;
43817;SDS011;29868;47.360;18.984;2023-08-20T10:59:56;5.28;;;4.78;;
43817;SDS011;29868;47.360;18.984;2023-08-20T11:02:25;5.75;;;5.03;;
43817;SDS011;29868;47.360;18.984;2023-08-20T11:04:52;5.32;;;4.38;;
43817;SDS011;29868;47.360;18.984;2023-08-20T11:07:18;6.18;;;4.50;;
43817;SDS011;29868;47.360;18.984;2023-08-20T11:09:45;5.13;;;4.45;;
43817;SDS011;29868;47.360;18.984;2023-08-20T11:12:14;6.97;;;4.80;;
43817;SDS011;29868;47.360;18.984;2023-08-20T11:14:40;5.40;;;4.78;;
43817;SDS011;29868;47.360;18.984;2023-08-20T11:17:06;5.88;;;5.10;;
43817;SDS011;29868;47.360;18.984;2023-08-20T11:19:33;5.85;;;4.70;;
43817;SDS011;29868;47.360;18.984;2023-08-20T11:21:58;5.30;;;4.57;;
43817;SDS011;29868;47.360;18.984;2023-08-20T11:24:27;5.63;;;4.88;;
43817;SDS011;29868;47.360;18.984;2023-08-20T11:26:54;5.88;;;4.80;;
43817;SDS011;29868;47.360;18.984;2023-08-20T11:29:20;5.82;;;5.20;;
43817;SDS011;29868;47.360;18.984;2023-08-20T11:31:46;5.90;;;5.20;;
43817;SDS011;29868;47.360;18.984;2023-08-20T11:34:12;6.13;;;5.28;;
43817;SDS011;29868;47.360;18.984;2023-08-20T11:36:40;6.88;;;5.20;;
43817;SDS011;29868;47.360;18.984;2023-08-20T11:39:06;5.43;;;4.72;;
43817;SDS011;29868;47.360;18.984;2023-08-20T11:41:35;6.50;;;4.93;;
43817;SDS011;29868;47.360;18.984;2023-08-20T11:44:01;6.65;;;5.07;;
43817;SDS011;29868;47.360;18.984;2023-08-20T11:46:26;6.32;;;5.45;;
43817;SDS011;29868;47.360;18.984;2023-08-20T11:49:05;5.90;;;5.30;;
43817;SDS011;29868;47.360;18.984;2023-08-20T11:51:35;6.53;;;5.10;;
43817;SDS011;29868;47.360;18.984;2023-08-20T11:54:04;6.13;;;5.28;;
43817;SDS011;29868;47.360;18.984;2023-08-20T11:56:34;5.85;;;4.75;;
43817;SDS011;29868;47.360;18.984;2023-08-20T11:59:00;5.90;;;5.07;;
43817;SDS011;29868;47.360;18.984;2023-08-20T12:01:30;5.78;;;5.18;;
43817;SDS011;29868;47.360;18.984;2023-08-20T12:04:03;5.80;;;5.20;;
43817;SDS011;29868;47.360;18.984;2023-08-20T12:06:30;6.00;;;5.40;;
43817;SDS011;29868;47.360;18.984;2023-08-20T12:08:57;5.97;;;4.78;;
43817;SDS011;29868;47.360;18.984;2023-08-20T12:11:32;7.72;;;5.10;;
43817;SDS011;29868;47.360;18.984;2023-08-20T12:13:58;7.18;;;4.97;;
43817;SDS011;29868;47.360;18.984;2023-08-20T12:16:24;6.63;;;5.00;;
43817;SDS011;29868;47.360;18.984;2023-08-20T12:18:50;6.93;;;5.70;;
43817;SDS011;29868;47.360;18.984;2023-08-20T12:21:16;6.53;;;5.82;;
43817;SDS011;29868;47.360;18.984;2023-08-20T12:23:42;6.65;;;5.38;;
43817;SDS011;29868;47.360;18.984;2023-08-20T12:26:07;5.40;;;4.90;;
43817;SDS011;29868;47.360;18.984;2023-08-20T12:28:35;6.35;;;5.47;;
43817;SDS011;29868;47.360;18.984;2023-08-20T12:31:01;6.18;;;5.57;;
43817;SDS011;29868;47.360;18.984;2023-08-20T12:33:28;6.57;;;5.75;;
43817;SDS011;29868;47.360;18.984;2023-08-20T12:35:53;6.30;;;5.38;;
43817;SDS011;29868;47.360;18.984;2023-08-20T12:38:19;6.97;;;5.50;;
43817;SDS011;29868;47.360;18.984;2023-08-20T12:40:45;7.22;;;5.60;;
43817;SDS011;29868;47.360;18.984;2023-08-20T12:43:10;6.00;;;5.25;;
43817;SDS011;29868;47.360;18.984;2023-08-20T12:45:35;6.35;;;5.60;;
43817;SDS011;29868;47.360;18.984;2023-08-20T12:48:01;6.20;;;5.57;;
43817;SDS011;29868;47.360;18.984;2023-08-20T12:50:28;6.70;;;5.47;;
43817;SDS011;29868;47.360;18.984;2023-08-20T12:52:54;6.00;;;5.32;;
43817;SDS011;29868;47.360;18.984;2023-08-20T12:55:19;6.07;;;5.38;;
43817;SDS011;29868;47.360;18.984;2023-08-20T12:57:52;6.80;;;5.20;;
43817;SDS011;29868;47.360;18.984;2023-08-20T13:00:19;6.60;;;5.18;;
43817;SDS011;29868;47.360;18.984;2023-08-20T13:02:45;6.38;;;5.22;;
43817;SDS011;29868;47.360;18.984;2023-08-20T13:05:11;5.63;;;5.10;;
43817;SDS011;29868;47.360;18.984;2023-08-20T13:07:37;6.95;;;5.15;;
43817;SDS011;29868;47.360;18.984;2023-08-20T13:10:03;6.22;;;5.07;;
43817;SDS011;29868;47.360;18.984;2023-08-20T13:12:29;5.40;;;4.90;;
43817;SDS011;29868;47.360;18.984;2023-08-20T13:14:57;7.20;;;5.20;;
43817;SDS011;29868;47.360;18.984;2023-08-20T13:17:23;5.22;;;4.72;;
43817;SDS011;29868;47.360;18.984;2023-08-20T13:19:49;6.63;;;5.45;;
43817;SDS011;29868;47.360;18.984;2023-08-20T13:22:14;5.88;;;5.05;;
43817;SDS011;29868;47.360;18.984;2023-08-20T13:24:40;6.95;;;4.65;;
43817;SDS011;29868;47.360;18.984;2023-08-20T13:27:05;5.72;;;5.05;;
43817;SDS011;29868;47.360;18.984;2023-08-20T13:29:30;5.57;;;4.88;;
43817;SDS011;29868;47.360;18.984;2023-08-20T13:31:56;5.78;;;5.15;;
43817;SDS011;29868;47.360;18.984;2023-08-20T13:34:21;6.40;;;5.15;;
43817;SDS011;29868;47.360;18.984;2023-08-20T13:36:47;7.25;;;4.90;;
43817;SDS011;29868;47.360;18.984;2023-08-20T13:39:12;5.20;;;4.70;;
43817;SDS011;29868;47.360;18.984;2023-08-20T13:41:43;5.55;;;4.90;;
43817;SDS011;29868;47.360;18.984;2023-08-20T13:44:08;5.57;;;4.70;;
43817;SDS011;29868;47.360;18.984;2023-08-20T13:46:34;5.30;;;4.80;;
43817;SDS011;29868;47.360;18.984;2023-08-20T13:48:59;7.68;;;5.18;;
43817;SDS011;29868;47.360;18.984;2023-08-20T13:51:25;5.50;;;4.97;;
43817;SDS011;29868;47.360;18.984;2023-08-20T13:53:50;5.97;;;5.05;;
43817;SDS011;29868;47.360;18.984;2023-08-20T13:56:16;6.00;;;5.00;;
43817;SDS011;29868;47.360;18.984;2023-08-20T13:58:41;5.82;;;4.97;;
43817;SDS011;29868;47.360;18.984;2023-08-20T14:01:07;5.78;;;5.03;;
43817;SDS011;29868;47.360;18.984;2023-08-20T14:03:32;7.88;;;5.35;;
43817;SDS011;29868;47.360;18.984;2023-08-20T14:05:58;5.82;;;5.22;;
43817;SDS011;29868;47.360;18.984;2023-08-20T14:08:23;6.43;;;4.60;;
43817;SDS011;29868;47.360;18.984;2023-08-20T14:10:48;6.43;;;5.10;;
43817;SDS011;29868;47.360;18.984;2023-08-20T14:13:14;6.43;;;5.10;;
43817;SDS011;29868;47.360;18.984;2023-08-20T14:15:39;5.20;;;4.68;;
43817;SDS011;29868;47.360;18.984;2023-08-20T14:18:05;6.45;;;4.80;;
43817;SDS011;29868;47.360;18.984;2023-08-20T14:20:30;5.75;;;5.15;;
43817;SDS011;29868;47.360;18.984;2023-08-20T14:22:56;6.47;;;5.00;;
43817;SDS011;29868;47.360;18.984;2023-08-20T14:25:21;5.55;;;4.97;;
43817;SDS011;29868;47.360;18.984;2023-08-20T14:27:46;5.80;;;5.20;;
43817;SDS011;29868;47.360;18.984;2023-08-20T14:30:12;6.78;;;5.18;;
43817;SDS011;29868;47.360;18.984;2023-08-20T14:32:37;7.28;;;5.03;;
43817;SDS011;29868;47.360;18.984;2023-08-20T14:35:03;6.82;;;5.07;;
43817;SDS011;29868;47.360;18.984;2023-08-20T14:37:29;6.80;;;5.47;;